Alexandria, Indiana
Current Conditions -  °F | °C
As of 11:53 PM on Monday 20 Oct 2014 (Local Time) from KMIE Reporting Station
Overcast Overcast  
Wind Chill: 53°   Ceiling: 6500
Heat Index: 53°   Visibility: 9mi
Dew Point: 49°   Wind: 6mph
Humidity: 86%   Direction: 320°NW
Pressure: 29.94"   Gusts: NA
Location:  40.26°N, 85.67°W
Report Text: KMIE 210353Z AUTO 32005KT 9SM SCT050 OVC065 12/09 A2994 RMK AO2 RAE16 SLP134 P0000 T01170094
Loading
Personal Weather Stations






























Interactive Weather Map New forecast layout! Learn more

10-Day Weather Forecast

Advertisements
Track Severe Weather on mobile